CheckWX is a tool to help pilots better visualize weather data.  It is not intended as a substitute for an official pre-flight weather briefing.

05:14:41 UTC

EFMA METAR
Mariehamn Airport
Finland
Current

25 mins ago

EFMA 240450Z AUTO 28006KT 240V310 CAVOK 02/M05 Q1012
Observed
Mar-24 @ 04:50 UTC
Wind
  • 280° at 6 KTS
Visibility
10,000+ meters
Flight Rules
VFR
Cloud Levels
  • Clear skies
Temperature
C / 36°F
Dewpoint
-5°C / 23°F
Humidity
60%
Altimeter
29.88" Hg
Pressure
1011.92 hPa
Previous

55 mins ago

EFMA 240420Z AUTO 28010KT 240V320 CAVOK 03/M06 Q1012
Observed
Mar-24 @ 04:20 UTC
Wind
  • 280° at 10 KTS
Visibility
10,000+ meters
Flight Rules
VFR
Cloud Levels
  • Clear skies
Temperature
C / 37°F
Dewpoint
-6°C / 21°F
Humidity
52%
Altimeter
29.88" Hg
Pressure
1011.92 hPa
Previous

1 hour ago

EFMA 240350Z AUTO 28010KT 240V330 CAVOK 03/M06 Q1011
Observed
Mar-24 @ 03:50 UTC
Wind
  • 280° at 10 KTS
Visibility
10,000+ meters
Flight Rules
VFR
Cloud Levels
  • Clear skies
Temperature
C / 37°F
Dewpoint
-6°C / 21°F
Humidity
52%
Altimeter
29.85" Hg
Pressure
1010.92 hPa